Time;durP1;ratioP1;P1;durP2;ratioP2;P2;SDS_P1;SDS_P2;PMS_P1;PMS_P2;Temp;Humidity;BMP_temperature;BMP_pressure;BME280_temperature;BME280_humidity;BME280_pressure;Samples;Min_cycle;Max_cycle;Signal;HPM_P1;HPM_P2
2023/05/18 00:00:38;;;;;;;12.93;8.60;;;13.70;99.90;;;;;;5031968;28;20029;-74
2023/05/18 00:03:04;;;;;;;14.05;8.85;;;13.70;99.90;;;;;;5031011;28;20037;-75
2023/05/18 00:05:32;;;;;;;13.30;9.20;;;13.70;99.90;;;;;;5031225;28;20044;-74
2023/05/18 00:08:00;;;;;;;12.65;8.68;;;13.60;99.90;;;;;;5032034;28;20041;-75
2023/05/18 00:10:26;;;;;;;12.27;7.93;;;13.60;99.90;;;;;;5030732;28;20041;-75
2023/05/18 00:12:52;;;;;;;14.20;8.00;;;13.60;99.90;;;;;;5031554;28;20025;-74
2023/05/18 00:15:18;;;;;;;16.85;8.50;;;13.60;99.90;;;;;;5031670;28;20037;-75
2023/05/18 00:17:44;;;;;;;14.02;8.25;;;13.50;99.90;;;;;;5030764;28;20034;-74
2023/05/18 00:20:10;;;;;;;11.52;8.23;;;13.40;99.90;;;;;;5047198;28;20048;-75
2023/05/18 00:22:41;;;;;;;13.70;7.50;;;13.50;99.90;;;;;;5030944;28;20488;-74
2023/05/18 00:25:07;;;;;;;12.38;8.00;;;13.50;99.90;;;;;;5030722;28;20041;-74
2023/05/18 00:27:33;;;;;;;17.45;8.10;;;13.40;99.90;;;;;;5031131;28;20402;-74
2023/05/18 00:29:59;;;;;;;15.75;8.20;;;13.40;99.90;;;;;;5032221;28;20037;-75
2023/05/18 00:32:25;;;;;;;12.88;7.78;;;13.40;99.90;;;;;;5031309;28;20520;-75
2023/05/18 00:34:51;;;;;;;14.57;8.15;;;13.30;99.90;;;;;;5030332;28;20022;-74
2023/05/18 00:37:17;;;;;;;14.25;7.45;;;13.30;99.90;;;;;;5032142;28;20393;-75
2023/05/18 00:39:44;;;;;;;12.55;7.95;;;13.30;99.90;;;;;;5030231;28;20021;-75
2023/05/18 00:42:10;;;;;;;17.10;8.25;;;13.20;99.90;;;;;;5030515;28;20406;-74
2023/05/18 00:44:36;;;;;;;18.38;7.25;;;13.10;99.90;;;;;;5030935;28;20030;-74
2023/05/18 00:47:02;;;;;;;13.25;7.65;;;13.10;99.90;;;;;;5035168;28;20548;-75
2023/05/18 00:49:28;;;;;;;10.88;7.50;;;13.00;99.90;;;;;;5033609;28;20048;-77
2023/05/18 00:51:54;;;;;;;11.27;7.30;;;13.00;99.90;;;;;;5013307;28;20054;-76
2023/05/18 00:54:21;;;;;;;14.38;7.72;;;12.90;99.90;;;;;;5030326;28;20398;-75
2023/05/18 00:56:47;;;;;;;14.70;7.88;;;12.90;99.90;;;;;;5031796;28;20049;-76
2023/05/18 00:59:14;;;;;;;13.18;8.50;;;12.90;99.90;;;;;;5030661;28;20030;-75
2023/05/18 01:01:45;;;;;;;14.13;8.30;;;12.90;99.90;;;;;;5029234;28;20042;-76
2023/05/18 01:04:14;;;;;;;14.38;7.60;;;12.80;99.90;;;;;;5028091;28;20045;-75
2023/05/18 01:06:41;;;;;;;14.65;8.05;;;12.90;99.90;;;;;;5034696;28;20041;-75
2023/05/18 01:09:08;;;;;;;15.25;7.70;;;12.90;99.90;;;;;;5033297;28;20393;-75
2023/05/18 01:11:50;;;;;;;15.02;7.80;;;12.90;99.90;;;;;;5033154;28;20042;-75
2023/05/18 01:14:19;;;;;;;;;;;12.90;99.90;;;;;;5034102;28;20371;-75
2023/05/18 01:16:53;;;;;;;12.63;7.70;;;12.90;99.90;;;;;;5035468;28;19921;-75
2023/05/18 01:19:28;;;;;;;14.52;8.10;;;12.90;99.90;;;;;;5034227;28;20397;-75
2023/05/18 01:22:21;;;;;;;15.98;8.10;;;12.90;99.90;;;;;;5033593;28;20041;-75
2023/05/18 01:24:52;;;;;;;13.70;8.40;;;13.00;99.90;;;;;;5034311;28;20082;-75
2023/05/18 01:27:18;;;;;;;12.50;7.82;;;13.00;99.90;;;;;;5034036;28;20497;-76
2023/05/18 01:29:44;;;;;;;15.45;8.65;;;13.00;99.90;;;;;;5034346;28;20037;-75
2023/05/18 01:32:19;;;;;;;14.18;8.75;;;13.00;99.90;;;;;;5033323;28;20052;-75
2023/05/18 01:34:45;;;;;;;15.35;8.43;;;12.90;99.90;;;;;;5049579;28;20040;-75
2023/05/18 01:37:11;;;;;;;15.02;7.22;;;12.80;99.90;;;;;;5034434;28;20049;-75
2023/05/18 01:39:37;;;;;;;15.35;7.93;;;12.80;99.90;;;;;;5034309;28;20029;-75
2023/05/18 01:42:07;;;;;;;13.40;7.80;;;12.70;99.90;;;;;;5016981;28;20042;-75
2023/05/18 01:44:40;;;;;;;11.98;7.82;;;12.70;99.90;;;;;;5034036;28;20026;-75
2023/05/18 01:47:15;;;;;;;14.80;6.97;;;12.60;99.90;;;;;;5037428;28;20064;-75
2023/05/18 01:49:55;;;;;;;16.60;8.27;;;12.60;99.90;;;;;;5028634;28;20148;-75
2023/05/18 01:52:37;;;;;;;14.68;7.45;;;12.60;99.90;;;;;;5032766;28;20482;-75
2023/05/18 01:55:03;;;;;;;13.95;8.18;;;12.70;99.90;;;;;;5033886;28;20026;-75
2023/05/18 01:57:31;;;;;;;16.08;8.25;;;12.60;99.90;;;;;;5034676;28;20038;-75
2023/05/18 02:00:00;;;;;;;16.85;8.05;;;12.50;99.90;;;;;;5033765;28;20041;-75
2023/05/18 02:02:26;;;;;;;12.15;7.63;;;12.50;99.90;;;;;;5031396;28;20029;-75
2023/05/18 02:04:52;;;;;;;18.38;9.02;;;12.50;99.90;;;;;;5028308;28;20037;-75
2023/05/18 02:07:19;;;;;;;16.02;8.48;;;12.50;99.90;;;;;;5025470;28;20398;-75
2023/05/18 02:09:45;;;;;;;13.05;7.18;;;12.50;99.90;;;;;;5027656;28;20036;-75
2023/05/18 02:12:11;;;;;;;17.52;8.35;;;12.50;99.90;;;;;;5033201;28;20397;-75
2023/05/18 02:14:37;;;;;;;17.25;7.75;;;12.40;99.90;;;;;;5031543;28;20029;-75
2023/05/18 02:17:05;;;;;;;13.73;7.78;;;12.40;99.90;;;;;;5032575;28;20034;-75
2023/05/18 02:19:32;;;;;;;16.15;8.55;;;12.30;99.90;;;;;;5032619;28;20038;-75
2023/05/18 02:21:58;;;;;;;16.15;8.85;;;12.40;99.90;;;;;;5030951;28;20037;-76
2023/05/18 02:24:25;;;;;;;13.90;8.10;;;12.50;99.90;;;;;;5048571;28;20029;-75
2023/05/18 02:26:51;;;;;;;14.35;8.93;;;12.50;99.90;;;;;;5031865;28;20474;-75
2023/05/18 02:29:17;;;;;;;13.90;8.40;;;12.50;99.90;;;;;;5033400;28;20033;-75
2023/05/18 02:31:43;;;;;;;13.68;7.72;;;12.40;99.90;;;;;;5031295;28;20045;-75
2023/05/18 02:34:09;;;;;;;19.60;9.00;;;12.30;99.90;;;;;;5017450;28;20044;-75
2023/05/18 02:36:36;;;;;;;12.88;7.47;;;12.20;99.90;;;;;;5033011;28;20371;-75
2023/05/18 02:39:05;;;;;;;15.57;8.90;;;12.10;99.90;;;;;;5034322;28;20044;-75
2023/05/18 02:41:32;;;;;;;12.82;7.40;;;12.10;99.90;;;;;;5034203;28;20038;-75
2023/05/18 02:43:58;;;;;;;15.35;8.25;;;12.10;99.90;;;;;;5033173;28;20025;-76
2023/05/18 02:46:24;;;;;;;12.48;7.20;;;12.10;99.90;;;;;;5033160;28;20057;-75
2023/05/18 02:48:51;;;;;;;14.95;7.85;;;12.10;99.90;;;;;;5076370;28;20766;-74
2023/05/18 02:51:17;;;;;;;14.35;8.48;;;12.10;99.90;;;;;;5033564;28;20041;-75
2023/05/18 02:53:43;;;;;;;17.17;8.30;;;12.20;99.90;;;;;;5032785;28;20488;-75
2023/05/18 02:56:11;;;;;;;16.25;8.93;;;12.10;99.90;;;;;;5032619;28;20088;-74
2023/05/18 02:58:37;;;;;;;13.30;7.85;;;12.10;99.90;;;;;;5032265;28;20060;-75
2023/05/18 03:01:06;;;;;;;14.82;7.63;;;12.30;99.90;;;;;;5033166;28;20033;-75
2023/05/18 03:03:35;;;;;;;13.35;8.68;;;12.30;99.90;;;;;;5031650;28;20036;-75
2023/05/18 03:06:01;;;;;;;14.77;7.78;;;12.30;99.90;;;;;;5033077;28;20438;-75
2023/05/18 03:08:27;;;;;;;16.85;9.32;;;12.20;99.90;;;;;;5032598;28;20037;-75
2023/05/18 03:10:54;;;;;;;17.60;8.32;;;12.00;99.90;;;;;;5031487;28;20036;-75
2023/05/18 03:13:20;;;;;;;14.07;8.10;;;12.10;99.90;;;;;;5015792;28;20041;-75
2023/05/18 03:15:46;;;;;;;14.00;8.48;;;12.20;99.90;;;;;;5032993;28;20040;-75
2023/05/18 03:18:12;;;;;;;15.85;8.73;;;12.10;99.90;;;;;;5029585;28;20048;-75
2023/05/18 03:20:39;;;;;;;11.77;8.48;;;12.10;99.90;;;;;;5032318;28;20033;-75
2023/05/18 03:23:05;;;;;;;14.85;8.80;;;12.10;99.90;;;;;;5046259;28;20021;-75
2023/05/18 03:25:31;;;;;;;15.77;8.50;;;12.20;99.90;;;;;;5031731;28;20389;-75
2023/05/18 03:27:58;;;;;;;13.52;8.65;;;12.20;99.90;;;;;;5031771;28;20041;-75
2023/05/18 03:30:24;;;;;;;14.50;8.45;;;12.30;99.90;;;;;;5047929;28;20025;-75
2023/05/18 03:32:50;;;;;;;12.93;8.70;;;12.10;99.90;;;;;;5031161;28;20513;-75
2023/05/18 03:35:16;;;;;;;16.98;9.55;;;12.20;99.90;;;;;;5062842;28;20033;-75
2023/05/18 03:37:42;;;;;;;15.38;8.05;;;12.10;99.90;;;;;;5032339;28;20034;-75
2023/05/18 03:40:11;;;;;;;12.77;8.07;;;12.10;99.90;;;;;;5064935;28;20100;-76
2023/05/18 03:42:37;;;;;;;15.93;8.18;;;12.10;99.90;;;;;;5013324;28;20042;-75
2023/05/18 03:45:05;;;;;;;13.63;8.18;;;12.10;99.90;;;;;;5028217;28;20037;-75
2023/05/18 03:47:31;;;;;;;14.07;7.72;;;12.20;99.90;;;;;;5040198;28;20040;-75
2023/05/18 03:49:57;;;;;;;14.55;8.38;;;12.10;99.90;;;;;;5039029;28;20044;-75
2023/05/18 03:52:23;;;;;;;12.45;8.20;;;12.10;99.90;;;;;;5031953;28;20045;-76
2023/05/18 03:54:49;;;;;;;14.18;8.25;;;12.00;99.90;;;;;;5025488;28;20489;-74
2023/05/18 03:57:16;;;;;;;14.90;8.52;;;12.20;99.90;;;;;;5032487;28;20033;-75
2023/05/18 03:59:45;;;;;;;17.30;8.30;;;12.20;99.90;;;;;;5030992;28;20029;-75
2023/05/18 04:02:11;;;;;;;15.38;8.07;;;12.00;99.90;;;;;;5030202;28;20434;-75
2023/05/18 04:04:44;;;;;;;16.55;8.10;;;11.70;99.90;;;;;;5063740;28;20029;-75
2023/05/18 04:07:11;;;;;;;12.68;7.55;;;11.60;99.90;;;;;;5031227;28;20034;-75
2023/05/18 04:09:38;;;;;;;16.77;7.53;;;11.60;99.90;;;;;;5030952;28;20501;-75
2023/05/18 04:12:04;;;;;;;15.10;7.88;;;11.50;99.90;;;;;;5047206;28;20493;-75
2023/05/18 04:14:34;;;;;;;17.80;8.50;;;11.40;99.90;;;;;;5032339;28;20048;-75
2023/05/18 04:17:04;;;;;;;13.70;7.45;;;11.50;99.90;;;;;;5045151;28;20370;-76
2023/05/18 04:19:31;;;;;;;13.02;7.95;;;11.40;99.90;;;;;;5029977;28;20394;-74
2023/05/18 04:21:57;;;;;;;11.50;7.85;;;11.30;99.90;;;;;;5062522;28;20041;-75
2023/05/18 04:24:25;;;;;;;18.35;8.95;;;11.30;99.90;;;;;;5032153;28;20021;-75
2023/05/18 04:26:52;;;;;;;17.65;8.45;;;11.40;99.90;;;;;;5030940;28;20029;-75
2023/05/18 04:29:18;;;;;;;14.32;8.38;;;11.50;99.90;;;;;;5014854;28;20041;-74
2023/05/18 04:31:47;;;;;;;18.40;8.23;;;11.50;99.90;;;;;;5030224;28;20054;-75
2023/05/18 04:34:16;;;;;;;17.40;7.68;;;11.50;99.90;;;;;;5012647;28;20033;-74
2023/05/18 04:36:43;;;;;;;17.17;7.97;;;11.30;99.90;;;;;;5039538;28;20045;-74
2023/05/18 04:39:10;;;;;;;16.23;8.40;;;11.20;99.90;;;;;;5030901;28;20043;-75
2023/05/18 04:41:36;;;;;;;17.30;8.43;;;11.20;99.90;;;;;;5031892;28;20034;-75
2023/05/18 04:44:03;;;;;;;20.10;8.70;;;11.20;99.90;;;;;;5032468;28;20029;-75
2023/05/18 04:46:29;;;;;;;16.67;8.73;;;11.30;99.90;;;;;;5031167;28;20068;-75
2023/05/18 04:48:56;;;;;;;13.65;8.27;;;11.40;99.90;;;;;;5050667;28;20123;-75
2023/05/18 04:51:23;;;;;;;15.85;8.93;;;11.50;99.90;;;;;;5041701;28;20044;-75
2023/05/18 04:53:49;;;;;;;13.35;8.57;;;11.60;99.90;;;;;;5031101;28;20044;-75
2023/05/18 04:56:21;;;;;;;14.95;8.35;;;11.70;99.90;;;;;;5031782;28;20041;-75
2023/05/18 04:58:47;;;;;;;15.88;7.97;;;11.80;99.90;;;;;;5031264;28;20381;-75
2023/05/18 05:01:14;;;;;;;11.85;8.48;;;11.70;99.90;;;;;;5031215;28;20041;-75
2023/05/18 05:03:43;;;;;;;17.17;9.70;;;11.70;99.90;;;;;;5030908;28;20033;-75
2023/05/18 05:06:09;;;;;;;15.73;8.38;;;11.80;99.90;;;;;;5030531;28;20044;-74
2023/05/18 05:08:36;;;;;;;13.05;8.75;;;11.80;99.90;;;;;;5031103;28;20033;-75
2023/05/18 05:11:02;;;;;;;16.98;9.25;;;11.80;99.90;;;;;;5031775;28;20045;-75
2023/05/18 05:13:29;;;;;;;12.38;8.20;;;11.80;99.90;;;;;;5031129;28;20045;-74
2023/05/18 05:15:55;;;;;;;23.02;8.90;;;11.70;99.90;;;;;;5029722;28;20029;-75
2023/05/18 05:18:21;;;;;;;20.10;8.63;;;11.50;99.90;;;;;;5029439;28;20025;-75
2023/05/18 05:20:49;;;;;;;15.23;8.48;;;11.60;99.90;;;;;;5031737;28;20028;-75
2023/05/18 05:23:15;;;;;;;18.40;8.88;;;11.50;99.90;;;;;;5030923;28;20026;-75
2023/05/18 05:25:41;;;;;;;14.60;8.70;;;11.50;99.90;;;;;;5031792;28;20030;-74
2023/05/18 05:28:07;;;;;;;14.57;8.98;;;11.60;99.90;;;;;;5031569;28;20052;-75
2023/05/18 05:30:33;;;;;;;13.73;8.02;;;11.60;99.90;;;;;;5030618;28;20033;-74
2023/05/18 05:32:59;;;;;;;15.73;8.77;;;11.60;99.90;;;;;;5026144;28;20064;-75
2023/05/18 05:35:25;;;;;;;14.93;8.18;;;11.50;99.90;;;;;;5030272;28;20041;-75
2023/05/18 05:37:51;;;;;;;19.05;8.23;;;11.60;99.90;;;;;;5031905;28;20389;-74
2023/05/18 05:40:17;;;;;;;14.65;8.55;;;11.60;99.90;;;;;;5031431;28;20455;-75
2023/05/18 05:42:43;;;;;;;16.08;8.35;;;11.50;99.90;;;;;;5030900;28;20041;-75
2023/05/18 05:45:09;;;;;;;13.55;8.18;;;11.50;99.90;;;;;;5031219;28;20038;-74
2023/05/18 05:47:35;;;;;;;14.35;8.80;;;11.50;99.90;;;;;;5040122;28;20056;-75
2023/05/18 05:50:02;;;;;;;13.05;8.38;;;11.60;99.90;;;;;;5051349;28;20040;-74
2023/05/18 05:52:28;;;;;;;19.20;8.35;;;11.70;99.90;;;;;;5032045;28;20045;-74
2023/05/18 05:54:54;;;;;;;17.45;8.45;;;11.70;99.90;;;;;;5035240;28;20044;-75
2023/05/18 05:57:20;;;;;;;11.63;7.85;;;11.80;99.90;;;;;;5034473;28;20382;-74
2023/05/18 05:59:46;;;;;;;17.73;8.52;;;11.80;99.90;;;;;;5034986;28;20038;-74
2023/05/18 06:02:12;;;;;;;13.73;7.88;;;11.80;99.90;;;;;;5044449;28;20468;-70
2023/05/18 06:04:39;;;;;;;15.15;7.95;;;12.00;99.90;;;;;;5017601;28;20037;-71
2023/05/18 06:07:05;;;;;;;14.95;8.43;;;11.90;99.90;;;;;;5033090;28;20049;-71
2023/05/18 06:09:31;;;;;;;15.73;9.18;;;12.00;99.90;;;;;;5029871;28;20056;-71
2023/05/18 06:11:57;;;;;;;13.02;8.48;;;12.10;99.90;;;;;;5030736;28;20046;-71
2023/05/18 06:14:23;;;;;;;14.82;8.50;;;12.20;99.90;;;;;;5031035;28;20026;-71
2023/05/18 06:16:49;;;;;;;14.82;9.23;;;12.20;99.90;;;;;;5029680;28;20042;-71
2023/05/18 06:19:15;;;;;;;19.88;8.20;;;12.30;99.90;;;;;;5017252;28;20082;-71
2023/05/18 06:21:42;;;;;;;12.70;8.23;;;12.30;99.90;;;;;;5032713;28;20029;-70
2023/05/18 06:24:08;;;;;;;14.07;7.90;;;12.30;99.90;;;;;;5033582;28;20489;-71
2023/05/18 06:26:34;;;;;;;13.05;7.10;;;12.30;99.90;;;;;;5030767;28;20034;-68
2023/05/18 06:29:00;;;;;;;16.95;8.40;;;12.40;99.90;;;;;;5033598;28;20371;-68
2023/05/18 06:31:26;;;;;;;12.73;7.72;;;12.40;99.90;;;;;;5023773;28;20050;-68
2023/05/18 06:33:52;;;;;;;13.65;8.25;;;12.50;99.90;;;;;;5030233;28;20060;-68
2023/05/18 06:36:18;;;;;;;15.00;8.60;;;12.60;99.90;;;;;;5034230;28;20033;-69
2023/05/18 06:38:44;;;;;;;12.35;8.32;;;12.70;99.90;;;;;;5034270;28;20025;-68
2023/05/18 06:41:10;;;;;;;11.65;7.53;;;12.70;99.90;;;;;;5033150;28;20036;-71
2023/05/18 06:43:37;;;;;;;14.43;7.60;;;12.80;99.90;;;;;;5031021;28;20512;-69
2023/05/18 06:46:03;;;;;;;14.55;7.68;;;13.10;99.90;;;;;;5030637;28;20060;-67
2023/05/18 06:48:29;;;;;;;16.30;8.80;;;13.20;99.90;;;;;;5036059;28;20033;-69
2023/05/18 06:50:55;;;;;;;12.93;8.15;;;13.10;99.90;;;;;;5034114;28;20041;-70
2023/05/18 06:53:24;;;;;;;12.73;7.85;;;13.10;99.90;;;;;;5033940;28;20042;-69
2023/05/18 06:55:50;;;;;;;14.82;8.45;;;13.00;99.90;;;;;;5033498;28;20057;-68
2023/05/18 06:58:16;;;;;;;13.82;7.95;;;13.00;99.90;;;;;;5034098;28;20049;-70
2023/05/18 07:00:42;;;;;;;15.07;8.02;;;13.10;99.90;;;;;;5033226;28;20037;-70
2023/05/18 07:03:08;;;;;;;14.82;7.20;;;13.20;99.90;;;;;;5033237;28;20060;-68
2023/05/18 07:05:35;;;;;;;13.70;7.43;;;13.20;99.90;;;;;;5031202;28;20029;-68
2023/05/18 07:08:03;;;;;;;13.63;8.27;;;13.10;99.90;;;;;;5034394;28;20049;-68
2023/05/18 07:10:30;;;;;;;14.25;7.63;;;13.20;99.90;;;;;;5033730;28;20347;-68
2023/05/18 07:12:56;;;;;;;14.43;7.68;;;13.40;99.90;;;;;;5032402;28;20057;-68
2023/05/18 07:15:24;;;;;;;12.52;8.07;;;13.50;99.90;;;;;;5032775;28;20064;-69
2023/05/18 07:17:51;;;;;;;11.63;7.70;;;13.60;99.90;;;;;;5032239;28;20049;-69
2023/05/18 07:20:17;;;;;;;12.20;7.28;;;13.70;99.90;;;;;;5031520;28;20506;-69
2023/05/18 07:22:43;;;;;;;12.70;7.78;;;13.70;99.90;;;;;;5033739;28;20041;-69
2023/05/18 07:25:09;;;;;;;13.77;7.60;;;13.80;99.90;;;;;;5031780;28;20469;-70
2023/05/18 07:27:35;;;;;;;11.57;7.35;;;13.90;99.90;;;;;;5031713;28;20036;-70
2023/05/18 07:30:02;;;;;;;10.98;6.85;;;13.90;99.90;;;;;;5033586;28;20470;-70
2023/05/18 07:32:28;;;;;;;11.15;7.65;;;13.90;99.90;;;;;;5030846;28;20478;-69
2023/05/18 07:34:54;;;;;;;13.05;7.65;;;13.90;99.90;;;;;;5033327;28;20030;-69
2023/05/18 07:37:20;;;;;;;13.38;8.10;;;14.10;99.90;;;;;;5032000;28;20037;-69
2023/05/18 07:39:46;;;;;;;10.60;8.05;;;14.20;99.90;;;;;;5032937;28;20033;-70
2023/05/18 07:42:13;;;;;;;12.13;7.60;;;14.20;99.90;;;;;;5033034;28;20056;-70
2023/05/18 07:44:39;;;;;;;16.25;8.18;;;14.40;99.90;;;;;;5032714;28;20021;-71
2023/05/18 07:47:05;;;;;;;11.60;7.32;;;14.60;99.90;;;;;;5034169;28;20407;-72
2023/05/18 07:49:31;;;;;;;10.48;7.38;;;14.70;99.90;;;;;;5044969;28;20032;-70
2023/05/18 07:51:58;;;;;;;13.98;7.05;;;14.80;99.90;;;;;;5031370;28;20033;-70
2023/05/18 07:54:25;;;;;;;12.05;7.30;;;14.90;99.90;;;;;;5023483;28;20048;-70
2023/05/18 07:56:51;;;;;;;9.73;7.18;;;14.90;99.90;;;;;;5030357;28;20068;-69
2023/05/18 07:59:17;;;;;;;10.50;7.03;;;14.90;99.90;;;;;;5032765;28;20040;-70
2023/05/18 08:01:43;;;;;;;9.23;7.05;;;15.00;99.90;;;;;;5031321;28;20402;-70
2023/05/18 08:04:09;;;;;;;15.20;7.30;;;15.00;99.90;;;;;;5032764;28;20030;-70
2023/05/18 08:06:35;;;;;;;10.95;7.85;;;15.10;99.90;;;;;;5032189;28;20041;-70
2023/05/18 08:09:02;;;;;;;10.80;7.68;;;15.20;99.90;;;;;;5030662;28;20044;-70
2023/05/18 08:11:28;;;;;;;10.52;7.25;;;15.30;99.90;;;;;;5031797;28;20025;-67
2023/05/18 08:13:54;;;;;;;12.98;7.82;;;15.50;99.90;;;;;;5031371;28;20116;-67
2023/05/18 08:16:20;;;;;;;10.60;7.63;;;15.60;99.90;;;;;;5030717;28;20041;-82
2023/05/18 08:18:47;;;;;;;10.98;7.15;;;15.60;99.90;;;;;;5032539;28;20497;-82
2023/05/18 08:21:13;;;;;;;8.75;7.07;;;15.80;99.90;;;;;;5031826;28;20034;-74
2023/05/18 08:23:39;;;;;;;9.85;6.75;;;15.80;99.90;;;;;;5030738;28;20475;-76
2023/05/18 08:26:06;;;;;;;10.40;6.47;;;15.80;99.90;;;;;;5031915;28;20071;-72
2023/05/18 08:28:33;;;;;;;10.07;6.65;;;16.00;99.90;;;;;;5029644;28;20053;-80
2023/05/18 08:30:59;;;;;;;9.65;6.43;;;16.00;99.90;;;;;;5029505;28;20486;-83
2023/05/18 08:33:25;;;;;;;8.65;6.30;;;16.10;99.90;;;;;;5031064;28;20056;-69
2023/05/18 08:35:52;;;;;;;12.13;6.75;;;16.10;99.90;;;;;;5031890;28;20041;-68
2023/05/18 08:38:18;;;;;;;8.88;6.45;;;16.10;99.90;;;;;;5032095;28;20021;-72
2023/05/18 08:41:13;;;;;;;10.73;6.40;;;16.00;99.90;;;;;;5032214;28;20029;-69
2023/05/18 08:43:42;;;;;;;10.25;6.30;;;16.00;99.90;;;;;;5031000;28;20033;-72
2023/05/18 08:46:20;;;;;;;9.40;6.45;;;16.10;99.90;;;;;;5017565;28;20033;-72
2023/05/18 08:48:46;;;;;;;10.27;6.32;;;16.20;99.90;;;;;;5082346;28;20040;-73
2023/05/18 08:51:13;;;;;;;8.02;6.50;;;16.30;99.90;;;;;;5034693;28;20189;-72
2023/05/18 08:53:40;;;;;;;10.73;5.93;;;16.40;99.90;;;;;;5030308;28;20050;-70
2023/05/18 08:56:06;;;;;;;13.90;6.50;;;16.30;99.90;;;;;;5030344;28;20390;-70
2023/05/18 08:58:46;;;;;;;7.65;6.25;;;16.40;99.90;;;;;;5031771;28;20040;-70
2023/05/18 09:01:12;;;;;;;13.02;6.18;;;16.40;99.90;;;;;;5028924;28;20048;-70
2023/05/18 09:03:39;;;;;;;11.32;6.05;;;16.50;99.90;;;;;;5030407;28;20029;-71
2023/05/18 09:06:05;;;;;;;12.30;6.28;;;16.60;99.90;;;;;;5030207;28;20026;-71
2023/05/18 09:08:31;;;;;;;9.90;6.45;;;16.60;99.90;;;;;;5031837;28;20034;-71
2023/05/18 09:10:59;;;;;;;14.77;6.72;;;16.70;99.90;;;;;;5031540;28;20044;-71
2023/05/18 09:13:25;;;;;;;9.20;6.75;;;16.70;99.90;;;;;;5033882;28;20045;-70
2023/05/18 09:15:51;;;;;;;10.07;6.75;;;16.80;99.90;;;;;;5029478;28;20056;-70
2023/05/18 09:18:18;;;;;;;11.18;5.85;;;16.80;99.90;;;;;;5038146;28;20421;-71
2023/05/18 09:20:44;;;;;;;9.65;6.97;;;16.70;99.90;;;;;;5027743;28;20040;-70
2023/05/18 09:23:14;;;;;;;8.20;7.40;;;16.70;99.90;;;;;;5029080;28;20063;-70
2023/05/18 09:25:43;;;;;;;8.77;7.10;;;16.80;99.90;;;;;;5033517;28;20034;-70
2023/05/18 09:28:14;;;;;;;8.13;7.20;;;16.80;99.90;;;;;;5033551;28;20049;-71
2023/05/18 09:30:41;;;;;;;10.35;7.05;;;17.00;99.90;;;;;;5033362;28;20029;-71
2023/05/18 09:33:17;;;;;;;8.68;6.85;;;17.00;99.90;;;;;;5035456;28;20056;-71
2023/05/18 09:35:46;;;;;;;7.40;6.70;;;17.00;99.90;;;;;;5032568;28;20034;-71
2023/05/18 09:38:20;;;;;;;10.23;7.15;;;17.00;99.90;;;;;;5032160;28;20029;-70
2023/05/18 09:40:48;;;;;;;10.90;7.10;;;17.00;99.90;;;;;;5033764;28;20040;-70
2023/05/18 09:43:16;;;;;;;7.68;6.93;;;17.20;99.90;;;;;;5035083;28;20052;-70
2023/05/18 09:45:43;;;;;;;11.40;7.50;;;17.30;99.90;;;;;;5032748;28;20038;-71
2023/05/18 09:48:09;;;;;;;8.68;7.93;;;17.40;99.90;;;;;;5033396;28;20033;-70
2023/05/18 09:50:36;;;;;;;8.60;7.78;;;17.50;99.90;;;;;;5033911;28;20045;-71
2023/05/18 09:53:06;;;;;;;7.80;7.07;;;17.50;99.80;;;;;;5034123;28;20048;-70
2023/05/18 09:55:35;;;;;;;9.13;8.23;;;17.40;99.50;;;;;;5034219;28;20081;-71
2023/05/18 09:58:03;;;;;;;11.38;8.93;;;17.60;99.90;;;;;;5034387;28;20037;-71
2023/05/18 10:00:29;;;;;;;8.48;7.65;;;17.70;99.90;;;;;;5033562;28;20048;-71
2023/05/18 10:02:55;;;;;;;10.73;8.48;;;17.70;99.90;;;;;;5034773;28;20060;-70
2023/05/18 10:05:22;;;;;;;9.20;8.50;;;17.90;99.90;;;;;;5034214;28;20366;-70
2023/05/18 10:07:52;;;;;;;10.23;9.20;;;18.20;99.90;;;;;;5034917;28;20033;-70
2023/05/18 10:10:19;;;;;;;9.60;8.63;;;18.40;99.90;;;;;;5032232;28;20033;-70
2023/05/18 10:12:45;;;;;;;9.75;8.77;;;18.60;99.90;;;;;;5032800;28;20062;-71
2023/05/18 10:15:15;;;;;;;9.40;8.40;;;18.70;99.90;;;;;;5034025;28;20048;-70
2023/05/18 10:17:42;;;;;;;9.73;8.10;;;18.60;99.90;;;;;;5033840;28;20037;-70
2023/05/18 10:20:08;;;;;;;10.00;8.23;;;18.70;99.90;;;;;;5032931;28;20462;-71
2023/05/18 10:22:35;;;;;;;8.57;7.93;;;18.90;99.70;;;;;;5034608;28;20033;-70
2023/05/18 10:25:05;;;;;;;8.75;7.97;;;19.00;99.20;;;;;;5034975;28;20033;-70
2023/05/18 10:27:34;;;;;;;9.13;8.23;;;18.80;99.50;;;;;;5033815;28;20045;-70
2023/05/18 10:30:02;;;;;;;7.60;7.07;;;18.90;99.70;;;;;;5032527;28;20474;-71
2023/05/18 10:32:28;;;;;;;8.35;7.65;;;18.70;98.70;;;;;;5029689;28;20037;-71
2023/05/18 10:34:55;;;;;;;8.60;7.95;;;18.50;99.40;;;;;;5031049;28;20042;-70
2023/05/18 10:37:22;;;;;;;7.28;6.88;;;18.30;98.90;;;;;;5032324;28;20037;-70
2023/05/18 10:39:50;;;;;;;8.07;7.28;;;18.30;98.90;;;;;;5034460;28;20045;-70
2023/05/18 10:42:16;;;;;;;10.48;8.10;;;18.20;98.90;;;;;;5034050;28;20458;-70
2023/05/18 10:44:42;;;;;;;9.13;8.00;;;18.30;99.20;;;;;;5031438;28;20048;-70
2023/05/18 10:47:10;;;;;;;10.05;7.90;;;18.30;99.00;;;;;;5033719;28;20041;-71
2023/05/18 10:49:36;;;;;;;8.73;8.02;;;18.30;99.30;;;;;;5016306;28;20029;-70
2023/05/18 10:52:02;;;;;;;10.05;8.77;;;18.40;99.70;;;;;;5032739;28;20025;-70
2023/05/18 10:54:29;;;;;;;8.80;8.10;;;18.60;99.60;;;;;;5034178;28;20040;-70
2023/05/18 10:56:55;;;;;;;8.60;7.90;;;18.60;98.50;;;;;;5031860;28;20470;-71
2023/05/18 10:59:24;;;;;;;8.90;7.70;;;18.60;99.20;;;;;;5032125;28;20057;-70
2023/05/18 11:01:51;;;;;;;8.65;7.90;;;18.40;99.00;;;;;;5033116;28;20084;-70
2023/05/18 11:04:28;;;;;;;9.15;8.35;;;18.30;99.10;;;;;;5033286;28;20033;-70
2023/05/18 11:06:58;;;;;;;9.02;8.32;;;18.40;99.50;;;;;;5031761;28;20041;-70
2023/05/18 11:09:25;;;;;;;9.43;8.52;;;18.40;99.50;;;;;;5033432;28;20048;-71
2023/05/18 11:11:52;;;;;;;9.10;8.38;;;18.50;99.50;;;;;;5015504;28;20207;-70
2023/05/18 11:14:52;;;;;;;8.70;7.90;;;18.70;99.80;;;;;;5030674;28;20054;-71
2023/05/18 11:17:25;;;;;;;10.75;8.45;;;18.60;99.40;;;;;;5032675;28;20045;-70
2023/05/18 11:20:11;;;;;;;9.48;8.45;;;18.70;99.50;;;;;;5033735;28;20373;-70
2023/05/18 11:22:48;;;;;;;9.43;8.45;;;18.70;99.20;;;;;;5027840;28;20045;-70
2023/05/18 11:25:26;;;;;;;9.38;8.57;;;18.70;99.10;;;;;;5031558;28;20045;-71
2023/05/18 11:28:00;;;;;;;10.32;9.07;;;18.50;99.10;;;;;;5033584;28;20040;-70
2023/05/18 11:30:34;;;;;;;9.52;8.70;;;18.60;98.70;;;;;;5032673;28;20078;-70
2023/05/18 11:33:11;;;;;;;10.18;9.15;;;18.60;99.10;;;;;;5030497;28;20057;-71
2023/05/18 11:36:10;;;;;;;10.13;9.13;;;18.80;99.30;;;;;;5048149;28;20037;-71
2023/05/18 11:39:05;;;;;;;9.52;8.73;;;18.70;99.60;;;;;;5033351;28;20022;-71
2023/05/18 11:41:33;;;;;;;9.15;8.27;;;19.00;99.40;;;;;;5031324;28;20048;-70
2023/05/18 11:44:15;;;;;;;9.93;9.05;;;18.80;99.00;;;;;;5030996;28;20037;-70
2023/05/18 11:46:57;;;;;;;10.07;9.18;;;18.70;99.20;;;;;;5031327;28;20060;-70
2023/05/18 11:49:31;;;;;;;10.20;9.32;;;18.80;98.80;;;;;;5052590;28;20363;-71
2023/05/18 11:52:02;;;;;;;9.63;8.88;;;18.90;98.20;;;;;;5037383;28;20033;-70
2023/05/18 11:54:33;;;;;;;9.77;8.55;;;19.10;98.50;;;;;;5031933;28;20502;-70
2023/05/18 11:56:59;;;;;;;8.55;7.85;;;19.30;98.10;;;;;;5031517;28;20076;-70
2023/05/18 11:59:33;;;;;;;10.10;9.23;;;19.50;98.00;;;;;;5031475;28;20479;-70
2023/05/18 12:02:00;;;;;;;9.60;8.75;;;19.40;97.50;;;;;;5031853;28;20045;-70
2023/05/18 12:04:26;;;;;;;9.20;8.30;;;19.20;97.70;;;;;;5029517;28;20038;-70
2023/05/18 12:06:53;;;;;;;9.35;8.40;;;19.30;98.30;;;;;;5032400;28;20048;-70
2023/05/18 12:09:19;;;;;;;10.48;9.15;;;19.30;97.80;;;;;;5015112;28;20041;-71
2023/05/18 12:11:46;;;;;;;10.13;9.10;;;19.10;97.90;;;;;;5032402;28;20037;-70
2023/05/18 12:14:12;;;;;;;10.52;9.43;;;19.10;98.40;;;;;;5032109;28;20057;-70
2023/05/18 12:16:38;;;;;;;9.82;9.02;;;19.10;98.00;;;;;;5031457;28;20033;-70
2023/05/18 12:19:06;;;;;;;9.85;8.85;;;19.10;97.90;;;;;;5047973;28;20378;-70
2023/05/18 12:21:35;;;;;;;10.40;9.32;;;19.10;97.70;;;;;;5032691;28;20041;-70
2023/05/18 12:24:02;;;;;;;11.65;9.73;;;19.10;98.20;;;;;;5031258;28;20051;-70
2023/05/18 12:26:29;;;;;;;10.60;9.65;;;19.30;98.10;;;;;;5032383;28;20040;-70
2023/05/18 12:28:55;;;;;;;10.82;8.82;;;19.30;97.20;;;;;;5037592;28;20045;-70
2023/05/18 12:31:21;;;;;;;9.48;8.68;;;19.40;97.20;;;;;;5031682;28;20040;-70
2023/05/18 12:33:49;;;;;;;11.73;10.68;;;19.50;97.20;;;;;;5030428;28;20049;-70
2023/05/18 12:36:15;;;;;;;9.45;8.73;;;19.50;97.00;;;;;;5029546;28;20037;-71
2023/05/18 12:38:42;;;;;;;10.32;9.48;;;19.50;96.50;;;;;;5032309;28;20040;-70
2023/05/18 12:41:08;;;;;;;10.50;9.70;;;19.30;96.70;;;;;;5032049;28;20033;-70